createdAt,value
2022-08-10T00:00:56.878Z,99290.56
2022-08-10T00:03:23.510Z,99262.28
2022-08-10T00:05:52.592Z,99271.72
2022-08-10T00:08:22.626Z,99276.19
2022-08-10T00:10:55.845Z,99310.53
2022-08-10T00:13:24.839Z,99253.38
2022-08-10T00:15:55.060Z,99262.06
2022-08-10T00:18:31.516Z,99254.47
2022-08-10T00:21:07.309Z,99327.66
2022-08-10T00:23:34.665Z,99328.38
2022-08-10T00:26:02.102Z,99326.13
2022-08-10T00:28:29.095Z,99263.25
2022-08-10T00:30:55.937Z,99325.94
2022-08-10T00:33:22.931Z,99303.16
2022-08-10T00:35:49.713Z,99242.91
2022-08-10T00:38:16.583Z,99319.13
2022-08-10T00:40:43.190Z,99259.94
2022-08-10T00:43:09.835Z,99266.19
2022-08-10T00:45:36.848Z,99244.81
2022-08-10T00:48:04.091Z,99257.31
2022-08-10T00:50:30.831Z,99182.34
2022-08-10T00:52:57.816Z,99272.91
2022-08-10T00:55:24.907Z,99281.06
2022-08-10T00:57:54.760Z,99217.72
2022-08-10T01:00:23.307Z,99274.31
2022-08-10T01:02:50.213Z,99250.53
2022-08-10T01:05:16.940Z,99258.56
2022-08-10T01:08:12.910Z,99301.25
2022-08-10T01:12:39.170Z,99302.44
2022-08-10T01:14:09.422Z,99226.41
2022-08-10T01:17:02.918Z,99233.19
2022-08-10T01:20:12.642Z,99259.44
2022-08-10T01:23:03.132Z,99288.34
2022-08-10T01:26:11.494Z,99294.94
2022-08-10T01:28:53.954Z,99292.31
2022-08-10T01:31:26.607Z,99286.72
2022-08-10T01:34:02.929Z,99223.38
2022-08-10T01:36:35.333Z,99243.69
2022-08-10T01:39:04.047Z,99295.53
2022-08-10T01:41:46.918Z,99312.16
2022-08-10T01:44:32.160Z,99250.03
2022-08-10T01:47:03.475Z,99236.94
2022-08-10T01:49:31.817Z,99295.59
2022-08-10T01:52:00.891Z,99258.88
2022-08-10T01:54:29.654Z,99274.47
2022-08-10T01:56:58.175Z,99310.38
2022-08-10T01:59:32.649Z,99264.41
2022-08-10T02:02:04.016Z,99310.78
2022-08-10T02:04:34.750Z,99229.34
2022-08-10T02:07:02.692Z,99240.22
2022-08-10T02:09:34.507Z,99266.88
2022-08-10T02:12:08.646Z,99287.16
2022-08-10T02:14:40.486Z,99208.44
2022-08-10T02:18:00.178Z,99307.88
2022-08-10T02:20:02.235Z,99277.13
2022-08-10T02:22:37.416Z,99256.59
2022-08-10T02:25:41.703Z,99284.72
2022-08-10T02:28:30.494Z,99224.19
2022-08-10T02:31:06.584Z,99211.28
2022-08-10T02:33:38.165Z,99241.81
2022-08-10T02:36:08.369Z,99230.75
2022-08-10T02:38:59.727Z,99216.34
2022-08-10T02:42:18.889Z,99287.53
2022-08-10T02:45:18.410Z,98908.34
2022-08-10T02:47:46.751Z,99290.59
2022-08-10T02:50:32.501Z,99228.66
2022-08-10T02:53:54.453Z,99207.28
2022-08-10T02:56:27.368Z,99167.34
2022-08-10T02:59:39.725Z,99306.22
2022-08-10T03:02:16.579Z,99255.34
2022-08-10T03:04:58.465Z,99292.69
2022-08-10T03:07:43.581Z,99240.59
2022-08-10T03:10:39.555Z,99260.47
2022-08-10T03:13:13.154Z,99313.19
2022-08-10T03:15:40.634Z,99256.38
2022-08-10T03:18:11.982Z,99216.78
2022-08-10T03:20:43.387Z,99310.28
2022-08-10T03:23:16.530Z,99308.69
2022-08-10T03:25:52.686Z,99241.34
2022-08-10T03:28:25.727Z,99266.78
2022-08-10T03:30:53.146Z,99257.66
2022-08-10T03:33:21.880Z,99264.97
2022-08-10T03:36:43.773Z,99281.78
2022-08-10T03:38:36.966Z,99268.88
2022-08-10T03:41:06.137Z,99331.97
2022-08-10T03:43:34.185Z,99317.00
2022-08-10T03:46:06.132Z,99303.81
2022-08-10T03:48:48.523Z,99269.13
2022-08-10T03:51:18.030Z,99236.81
2022-08-10T03:54:04.221Z,99263.44
2022-08-10T03:56:33.469Z,99277.03
2022-08-10T03:59:01.484Z,99264.94
2022-08-10T04:02:44.210Z,99275.44
2022-08-10T04:04:23.288Z,99323.25
2022-08-10T04:06:55.297Z,99321.44
2022-08-10T04:09:53.542Z,99328.03
2022-08-10T04:12:17.907Z,99253.94
2022-08-10T04:14:49.140Z,99334.34
2022-08-10T04:17:56.783Z,99235.72
2022-08-10T04:20:29.877Z,99333.75
2022-08-10T04:23:04.358Z,99329.47
2022-08-10T04:25:31.702Z,99262.94
2022-08-10T04:27:58.743Z,99281.66
2022-08-10T04:30:27.946Z,99283.63
2022-08-10T04:32:56.501Z,99271.75
2022-08-10T04:35:26.058Z,99282.81
2022-08-10T04:37:54.451Z,99302.50
2022-08-10T04:40:28.518Z,99328.44
2022-08-10T04:43:12.705Z,99323.25
2022-08-10T04:45:50.525Z,99306.19
2022-08-10T04:48:42.084Z,99332.97
2022-08-10T04:51:20.975Z,99290.94
2022-08-10T04:54:06.168Z,99317.88
2022-08-10T04:56:36.045Z,99289.47
2022-08-10T04:59:03.450Z,99288.00
2022-08-10T05:02:21.778Z,99290.22
2022-08-10T05:04:36.515Z,99291.63
2022-08-10T05:07:05.447Z,99326.28
2022-08-10T05:09:32.055Z,99340.66
2022-08-10T05:11:58.712Z,99260.59
2022-08-10T05:14:25.366Z,99273.81
2022-08-10T05:16:52.212Z,99342.31
2022-08-10T05:20:02.314Z,99260.94
2022-08-10T05:22:05.972Z,99256.41
2022-08-10T05:24:32.588Z,99337.00
2022-08-10T05:27:09.268Z,99291.88
2022-08-10T05:29:37.158Z,99285.66
2022-08-10T05:32:04.233Z,99300.34
2022-08-10T05:34:30.989Z,99281.63
2022-08-10T05:36:58.695Z,99324.50
2022-08-10T05:39:30.302Z,99286.97
2022-08-10T05:42:01.503Z,99290.56
2022-08-10T05:44:29.599Z,99302.94
2022-08-10T05:46:56.378Z,99303.16
2022-08-10T05:49:23.063Z,99333.22
2022-08-10T05:51:49.923Z,99276.72
2022-08-10T05:54:16.577Z,99287.75
2022-08-10T05:56:56.843Z,99319.88
2022-08-10T06:00:35.617Z,99343.72
2022-08-10T06:02:35.782Z,99340.81
2022-08-10T06:05:07.196Z,99297.16
2022-08-10T06:07:37.406Z,99297.47
2022-08-10T06:10:10.018Z,99321.88
2022-08-10T06:12:54.192Z,99351.38
2022-08-10T06:15:52.340Z,99232.50
2022-08-10T06:18:13.641Z,99275.53
2022-08-10T06:20:41.777Z,99350.13
2022-08-10T06:23:09.833Z,99314.19
2022-08-10T06:26:11.935Z,99310.69
2022-08-10T06:28:24.735Z,99289.78
2022-08-10T06:30:54.684Z,99358.66
2022-08-10T06:33:25.206Z,99320.16
2022-08-10T06:35:54.046Z,99292.69
2022-08-10T06:38:24.270Z,99350.81
2022-08-10T06:40:56.897Z,99270.38
2022-08-10T06:43:26.613Z,99313.94
2022-08-10T06:46:07.674Z,99309.16
2022-08-10T06:48:46.937Z,99354.56
2022-08-10T06:51:17.009Z,99296.09
2022-08-10T06:53:54.019Z,99355.16
2022-08-10T06:56:36.211Z,99330.22
2022-08-10T06:59:27.891Z,99348.03
2022-08-10T07:02:02.256Z,99320.34
2022-08-10T07:05:05.099Z,99354.22
2022-08-10T07:07:36.195Z,99349.00
2022-08-10T07:10:04.052Z,99335.63
2022-08-10T07:12:32.869Z,99312.34
2022-08-10T07:15:01.387Z,99315.50
2022-08-10T07:17:30.754Z,99203.69
2022-08-10T07:20:04.253Z,99316.91
2022-08-10T07:23:27.001Z,99341.38
2022-08-10T07:25:23.921Z,99296.19
2022-08-10T07:27:58.620Z,99282.25
2022-08-10T07:30:30.395Z,99313.28
2022-08-10T07:32:57.595Z,99311.16
2022-08-10T07:35:26.458Z,99299.56
2022-08-10T07:37:55.028Z,99359.94
2022-08-10T07:40:23.164Z,99356.44
2022-08-10T07:42:54.012Z,99329.94
2022-08-10T07:45:20.887Z,99308.06
2022-08-10T07:48:15.956Z,99361.75
2022-08-10T07:50:44.392Z,99299.94
2022-08-10T07:53:19.116Z,99311.78
2022-08-10T07:56:03.407Z,99315.03
2022-08-10T07:58:38.264Z,99328.00
2022-08-10T08:01:05.496Z,99336.03
2022-08-10T08:03:33.740Z,99324.47
2022-08-10T08:06:03.131Z,99326.00
2022-08-10T08:08:33.267Z,99272.03
2022-08-10T08:11:02.322Z,99313.84
2022-08-10T08:13:30.503Z,99291.09
2022-08-10T08:16:16.878Z,99323.06
2022-08-10T08:18:54.280Z,99314.88
2022-08-10T08:24:06.555Z,99337.25
2022-08-10T08:24:32.506Z,99357.31
2022-08-10T08:27:05.722Z,99344.81
2022-08-10T08:29:35.126Z,99364.16
2022-08-10T08:32:04.534Z,99327.75
2022-08-10T08:34:37.864Z,99305.81
2022-08-10T08:37:07.190Z,99296.34
2022-08-10T08:39:34.028Z,99284.16
2022-08-10T08:42:10.783Z,99288.88
2022-08-10T08:45:06.903Z,99365.06
2022-08-10T08:48:03.623Z,99330.94
2022-08-10T08:50:35.660Z,99369.50
2022-08-10T08:53:12.896Z,99361.44
2022-08-10T08:56:09.853Z,99298.59
2022-08-10T08:59:00.969Z,99324.56
2022-08-10T09:02:13.092Z,99354.50
2022-08-10T09:05:01.583Z,99357.66
2022-08-10T09:08:01.777Z,99360.19
2022-08-10T09:10:48.192Z,99351.94
2022-08-10T09:13:33.504Z,99351.84
2022-08-10T09:16:51.588Z,99349.56
2022-08-10T09:19:47.801Z,99326.00
2022-08-10T09:22:43.929Z,99336.47
2022-08-10T09:25:19.027Z,99298.59
2022-08-10T09:27:49.569Z,99276.47
2022-08-10T09:30:29.603Z,99330.38
2022-08-10T09:36:22.290Z,99246.78
2022-08-10T09:36:32.308Z,99328.19
2022-08-10T09:39:10.295Z,99326.78
2022-08-10T09:41:54.092Z,99319.50
2022-08-10T09:45:05.645Z,99319.81
2022-08-10T09:48:02.797Z,99319.41
2022-08-10T09:51:22.397Z,99325.44
2022-08-10T09:54:03.667Z,99313.06
2022-08-10T09:56:48.391Z,99279.19
2022-08-10T10:00:00.870Z,99298.06
2022-08-10T10:02:40.221Z,99296.38
2022-08-10T10:05:28.375Z,99294.94
2022-08-10T10:08:05.376Z,99289.06
2022-08-10T10:11:09.375Z,99282.31
2022-08-10T10:14:03.810Z,99240.22
2022-08-10T10:17:01.954Z,99282.91
2022-08-10T10:19:47.251Z,99281.59
2022-08-10T10:22:35.867Z,99279.97
2022-08-10T10:25:18.238Z,99240.91
2022-08-10T10:28:11.220Z,99280.31
2022-08-10T10:31:06.474Z,99188.69
2022-08-10T10:34:01.296Z,99215.53
2022-08-10T10:36:29.543Z,99194.34
2022-08-10T10:38:58.647Z,99228.38
2022-08-10T10:41:57.375Z,99171.53
2022-08-10T10:44:42.509Z,99204.63
2022-08-10T10:47:24.524Z,99259.59
2022-08-10T10:50:03.080Z,99250.69
2022-08-10T10:52:42.920Z,99164.34
2022-08-10T10:55:19.456Z,99195.19
2022-08-10T10:57:58.451Z,99164.34
2022-08-10T11:00:36.871Z,99182.72
2022-08-10T11:03:30.361Z,99199.75
2022-08-10T11:06:40.107Z,99248.53
2022-08-10T11:10:08.801Z,99209.28
2022-08-10T11:12:17.631Z,99192.50
2022-08-10T11:15:02.525Z,99243.13
2022-08-10T11:17:46.035Z,99220.38
2022-08-10T11:20:26.727Z,99166.25
2022-08-10T11:23:03.961Z,99247.16
2022-08-10T11:25:33.271Z,99111.94
2022-08-10T11:28:13.156Z,99159.78
2022-08-10T11:30:52.392Z,99232.81
2022-08-10T11:34:03.789Z,99230.75
2022-08-10T11:37:04.551Z,99237.81
2022-08-10T11:39:51.230Z,99235.34
2022-08-10T11:42:35.820Z,99225.91
2022-08-10T11:45:16.338Z,99160.66
2022-08-10T11:48:04.947Z,99225.69
2022-08-10T11:50:34.687Z,99160.19
2022-08-10T11:53:13.523Z,99089.59
2022-08-10T11:55:41.068Z,99168.69
2022-08-10T11:58:12.764Z,99210.84
2022-08-10T12:00:41.290Z,99185.66
2022-08-10T12:03:09.480Z,99225.25
2022-08-10T12:05:54.615Z,98811.66
2022-08-10T12:10:02.210Z,99220.38
2022-08-10T12:11:17.203Z,99170.56
2022-08-10T12:14:22.846Z,99212.28
2022-08-10T12:17:01.971Z,99152.19
2022-08-10T12:20:01.076Z,99209.00
2022-08-10T12:22:47.899Z,99128.88
2022-08-10T12:25:56.489Z,99156.94
2022-08-10T12:28:16.139Z,99199.81
2022-08-10T12:30:50.458Z,99138.91
2022-08-10T12:33:22.850Z,99165.44
2022-08-10T12:36:17.353Z,99189.53
2022-08-10T12:39:06.722Z,99168.91
2022-08-10T12:41:48.038Z,99185.34
2022-08-10T12:44:42.857Z,99182.44
2022-08-10T12:47:34.697Z,99175.22
2022-08-10T12:50:33.415Z,99140.75
2022-08-10T12:53:06.742Z,99170.56
2022-08-10T12:55:37.435Z,99115.28
2022-08-10T12:58:57.453Z,99081.72
2022-08-10T13:01:15.243Z,99100.19
2022-08-10T13:04:22.339Z,99074.25
2022-08-10T13:06:49.094Z,99023.94
2022-08-10T13:09:26.000Z,98900.16
2022-08-10T13:12:38.520Z,99150.25
2022-08-10T13:15:45.393Z,99147.19
2022-08-10T13:17:59.350Z,98762.66
2022-08-10T13:23:30.197Z,98725.38
2022-08-10T13:26:20.517Z,98938.75
2022-08-10T13:29:12.899Z,99131.41
2022-08-10T13:32:09.626Z,98536.84
2022-08-10T13:35:15.892Z,98941.69
2022-08-10T13:37:57.642Z,98980.25
2022-08-10T13:40:38.307Z,98833.81
2022-08-10T13:43:09.830Z,99079.03
2022-08-10T13:45:50.129Z,98829.28
2022-08-10T13:48:22.556Z,99038.94
2022-08-10T13:50:51.330Z,99085.56
2022-08-10T13:53:18.973Z,99094.28
2022-08-10T13:55:54.053Z,99039.88
2022-08-10T13:58:32.018Z,99099.41
2022-08-10T14:01:00.796Z,99110.19
2022-08-10T14:03:33.911Z,99050.38
2022-08-10T14:06:03.377Z,99032.56
2022-08-10T14:08:32.900Z,99065.16
2022-08-10T14:11:11.029Z,99088.44
2022-08-10T14:14:01.683Z,99086.84
2022-08-10T14:16:29.683Z,98918.06
2022-08-10T14:19:04.209Z,99014.19
2022-08-10T14:21:31.162Z,99049.50
2022-08-10T14:23:57.809Z,99058.56
2022-08-10T14:26:31.776Z,98990.53
2022-08-10T14:29:05.480Z,99077.19
2022-08-10T14:31:36.102Z,99079.13
2022-08-10T14:34:06.191Z,99085.75
2022-08-10T14:36:50.948Z,99072.84
2022-08-10T14:39:29.088Z,99024.53
2022-08-10T14:42:13.713Z,98949.88
2022-08-10T14:44:58.692Z,98795.09
2022-08-10T14:50:31.452Z,99004.16
2022-08-10T14:53:21.005Z,98985.53
2022-08-10T14:56:01.963Z,99066.81
2022-08-10T14:58:35.364Z,99060.34
2022-08-10T15:01:04.973Z,98932.53
2022-08-10T15:04:00.813Z,99007.13
2022-08-10T15:06:30.928Z,99058.22
2022-08-10T15:09:19.756Z,99066.31
2022-08-10T15:12:15.019Z,99059.84
2022-08-10T15:14:44.730Z,99060.13
2022-08-10T15:17:16.374Z,98995.25
2022-08-10T15:20:04.347Z,98997.38
2022-08-10T15:22:38.603Z,98744.31
2022-08-10T15:25:18.142Z,98903.22
2022-08-10T15:27:54.285Z,99007.44
2022-08-10T15:30:29.430Z,99001.69
2022-08-10T15:32:59.980Z,98935.28
2022-08-10T15:35:29.270Z,98973.28
2022-08-10T15:38:03.916Z,98982.09
2022-08-10T15:40:42.547Z,98964.28
2022-08-10T15:43:25.092Z,98964.78
2022-08-10T15:46:02.946Z,98962.91
2022-08-10T15:48:42.425Z,98986.56
2022-08-10T15:51:53.494Z,98969.16
2022-08-10T15:54:33.149Z,98944.06
2022-08-10T15:57:06.617Z,98841.22
2022-08-10T15:59:43.370Z,99002.47
2022-08-10T16:02:17.689Z,99021.38
2022-08-10T16:05:00.050Z,99019.16
2022-08-10T16:07:46.108Z,99006.16
2022-08-10T16:10:28.044Z,99024.31
2022-08-10T16:13:59.740Z,98920.84
2022-08-10T16:15:55.586Z,99005.13
2022-08-10T16:18:28.344Z,99009.72
2022-08-10T16:21:02.883Z,98928.94
2022-08-10T16:24:11.363Z,98817.97
2022-08-10T16:26:41.542Z,99003.66
2022-08-10T16:29:17.364Z,98972.19
2022-08-10T16:31:59.730Z,98983.31
2022-08-10T16:34:29.222Z,98968.69
2022-08-10T16:37:03.935Z,98933.88
2022-08-10T16:39:59.348Z,98896.91
2022-08-10T16:42:24.581Z,98943.94
2022-08-10T16:45:09.714Z,99004.97
2022-08-10T16:47:44.835Z,99003.66
2022-08-10T16:50:14.598Z,98982.28
2022-08-10T16:52:43.537Z,98967.69
2022-08-10T16:55:17.208Z,99001.22
2022-08-10T16:57:54.353Z,98893.13
2022-08-10T17:00:22.875Z,98975.03
2022-08-10T17:02:55.609Z,98997.47
2022-08-10T17:06:10.130Z,98961.75
2022-08-10T17:08:20.333Z,99006.09
2022-08-10T17:10:50.951Z,99008.53
2022-08-10T17:13:21.365Z,98996.63
2022-08-10T17:15:57.227Z,98968.75
2022-08-10T17:18:26.523Z,98916.53
2022-08-10T17:20:57.113Z,99008.75
2022-08-10T17:23:25.052Z,98913.25
2022-08-10T17:25:56.062Z,98954.66
2022-08-10T17:28:32.929Z,98936.75
2022-08-10T17:31:49.491Z,98938.34
2022-08-10T17:34:17.088Z,98881.09
2022-08-10T17:36:48.674Z,99003.78
2022-08-10T17:39:15.734Z,98997.25
2022-08-10T17:41:47.355Z,98966.84
2022-08-10T17:44:16.994Z,98958.75
2022-08-10T17:46:45.254Z,98930.88
2022-08-10T17:49:15.114Z,98979.56
2022-08-10T17:51:48.380Z,98968.94
2022-08-10T17:54:25.591Z,98915.41
2022-08-10T17:56:57.523Z,98932.91
2022-08-10T17:59:28.318Z,98996.53
2022-08-10T18:02:02.764Z,98945.19
2022-08-10T18:04:41.305Z,98919.56
2022-08-10T18:07:10.555Z,98956.66
2022-08-10T18:09:40.548Z,98919.59
2022-08-10T18:12:19.114Z,98998.63
2022-08-10T18:14:50.109Z,98964.44
2022-08-10T18:17:34.016Z,98946.28
2022-08-10T18:20:07.893Z,98930.19
2022-08-10T18:22:42.987Z,98934.50
2022-08-10T18:25:18.251Z,98969.09
2022-08-10T18:28:01.323Z,98964.69
2022-08-10T18:30:36.606Z,98971.66
2022-08-10T18:33:08.593Z,98999.81
2022-08-10T18:35:35.880Z,98947.28
2022-08-10T18:38:04.283Z,99006.84
2022-08-10T18:40:36.266Z,98943.16
2022-08-10T18:43:09.976Z,98958.31
2022-08-10T18:45:56.164Z,98936.41
2022-08-10T18:48:33.080Z,98957.66
2022-08-10T18:51:05.961Z,98980.34
2022-08-10T18:53:39.917Z,98953.25
2022-08-10T18:56:31.478Z,99007.47
2022-08-10T18:59:19.810Z,99010.00
2022-08-10T19:02:18.293Z,98987.97
2022-08-10T19:05:30.165Z,99018.19
2022-08-10T19:08:31.180Z,99024.63
2022-08-10T19:11:23.493Z,99027.03
2022-08-10T19:14:00.604Z,99004.09
2022-08-10T19:16:38.316Z,98991.53
2022-08-10T19:19:27.037Z,99028.94
2022-08-10T19:22:14.452Z,99027.28
2022-08-10T19:25:03.737Z,98923.03
2022-08-10T19:27:39.939Z,99029.97
2022-08-10T19:30:13.768Z,98988.16
2022-08-10T19:32:48.924Z,99037.72
2022-08-10T19:35:31.014Z,99037.25
2022-08-10T19:38:36.333Z,99037.22
2022-08-10T19:41:30.898Z,99036.72
2022-08-10T19:44:27.040Z,99036.22
2022-08-10T19:47:29.174Z,99037.69
2022-08-10T19:50:01.432Z,99039.59
2022-08-10T19:52:49.646Z,99038.19
2022-08-10T19:55:28.387Z,99045.16
2022-08-10T19:57:55.004Z,99045.06
2022-08-10T20:00:27.006Z,98961.59
2022-08-10T20:03:21.010Z,99028.53
2022-08-10T20:06:20.628Z,99053.03
2022-08-10T20:08:52.441Z,99034.31
2022-08-10T20:11:44.798Z,99050.84
2022-08-10T20:14:34.395Z,99053.13
2022-08-10T20:17:11.279Z,98999.34
2022-08-10T20:19:54.868Z,99055.66
2022-08-10T20:22:32.358Z,99002.84
2022-08-10T20:25:05.130Z,99056.91
2022-08-10T20:27:59.297Z,99009.75
2022-08-10T20:30:33.420Z,98972.41
2022-08-10T20:33:14.661Z,99047.06
2022-08-10T20:35:58.578Z,99050.31
2022-08-10T20:38:33.841Z,99045.41
2022-08-10T20:41:12.942Z,99057.31
2022-08-10T20:43:46.556Z,98964.38
2022-08-10T20:46:35.257Z,99052.28
2022-08-10T20:49:19.842Z,99055.69
2022-08-10T20:51:57.883Z,98978.56
2022-08-10T20:54:38.338Z,99024.56
2022-08-10T20:57:55.682Z,99049.25
2022-08-10T21:00:12.102Z,98995.31
2022-08-10T21:02:50.692Z,99043.22
2022-08-10T21:05:40.606Z,99040.19
2022-08-10T21:08:21.118Z,98998.25
2022-08-10T21:11:00.003Z,99035.53
2022-08-10T21:13:53.449Z,99035.09
2022-08-10T21:16:53.488Z,99002.88
2022-08-10T21:19:53.891Z,99046.75
2022-08-10T21:22:30.043Z,99048.66
2022-08-10T21:25:08.496Z,99032.06
2022-08-10T21:27:55.428Z,99043.72
2022-08-10T21:30:37.406Z,99056.31
2022-08-10T21:33:15.025Z,99009.69
2022-08-10T21:35:50.863Z,98998.72
2022-08-10T21:38:45.024Z,99057.56
2022-08-10T21:41:21.169Z,99046.75
2022-08-10T21:44:29.687Z,99057.41
2022-08-10T21:47:01.682Z,99038.66
2022-08-10T21:49:36.993Z,99064.16
2022-08-10T21:52:16.177Z,99006.03
2022-08-10T21:55:06.822Z,99072.28
2022-08-10T21:57:46.663Z,99067.03
2022-08-10T22:00:15.624Z,99001.06
2022-08-10T22:02:50.289Z,99026.16
2022-08-10T22:05:25.121Z,99065.06
2022-08-10T22:08:12.145Z,98997.38
2022-08-10T22:10:51.688Z,99062.00
2022-08-10T22:13:19.576Z,99031.84
2022-08-10T22:16:09.846Z,99006.66
2022-08-10T22:18:53.703Z,99039.63
2022-08-10T22:21:45.459Z,99065.06
2022-08-10T22:24:37.422Z,99061.22
2022-08-10T22:27:46.309Z,98996.53
2022-08-10T22:30:07.825Z,98989.25
2022-08-10T22:32:42.497Z,99063.16
2022-08-10T22:35:53.671Z,99054.47
2022-08-10T22:38:39.136Z,99050.59
2022-08-10T22:41:21.769Z,99051.00
2022-08-10T22:43:49.866Z,98991.78
2022-08-10T22:46:24.831Z,98982.50
2022-08-10T22:48:52.156Z,99004.94
2022-08-10T22:51:22.994Z,99047.34
2022-08-10T22:53:57.690Z,99048.53
2022-08-10T22:56:24.520Z,98986.50
2022-08-10T22:58:51.210Z,98991.31
2022-08-10T23:01:19.341Z,99043.78
2022-08-10T23:03:52.329Z,99009.56
2022-08-10T23:06:26.063Z,98974.63
2022-08-10T23:09:02.827Z,99001.88
2022-08-10T23:11:35.726Z,99035.88
2022-08-10T23:14:05.811Z,98965.69
2022-08-10T23:16:48.273Z,98980.06
2022-08-10T23:19:30.858Z,98977.97
2022-08-10T23:22:11.633Z,99050.44
2022-08-10T23:24:46.643Z,99009.19
2022-08-10T23:27:37.832Z,98993.28
2022-08-10T23:30:10.317Z,99021.16
2022-08-10T23:32:44.083Z,98984.31
2022-08-10T23:36:31.269Z,98955.03
2022-08-10T23:38:04.858Z,99030.91
2022-08-10T23:40:33.026Z,99028.00
2022-08-10T23:43:01.650Z,98989.28
2022-08-10T23:45:30.248Z,98984.13
2022-08-10T23:48:23.594Z,99043.22
2022-08-10T23:50:58.371Z,98981.34
2022-08-10T23:53:30.151Z,99000.44
2022-08-10T23:56:10.896Z,99049.78
2022-08-10T23:58:49.645Z,98985.41
